createdAt,value
2023-01-26T00:02:23.357Z,89.71
2023-01-26T00:04:50.292Z,89.67
2023-01-26T00:07:17.367Z,90.12
2023-01-26T00:09:44.261Z,90.46
2023-01-26T00:12:11.228Z,90.35
2023-01-26T00:14:58.311Z,90.31
2023-01-26T00:17:28.190Z,89.91
2023-01-26T00:19:57.167Z,89.94
2023-01-26T00:22:25.749Z,90.42
2023-01-26T00:24:52.694Z,90.47
2023-01-26T00:27:19.732Z,90.45
2023-01-26T00:29:46.679Z,90.41
2023-01-26T00:32:13.657Z,90.33
2023-01-26T00:34:41.897Z,90.42
2023-01-26T00:37:11.522Z,90.55
2023-01-26T00:39:38.613Z,90.75
2023-01-26T00:42:11.768Z,90.73
2023-01-26T00:44:39.037Z,90.16
2023-01-26T00:47:08.152Z,90.22
2023-01-26T00:49:35.443Z,89.99
2023-01-26T00:52:04.146Z,89.36
2023-01-26T00:54:31.241Z,89.52
2023-01-26T00:56:58.505Z,89.30
2023-01-26T00:59:26.584Z,89.32
2023-01-26T01:01:54.398Z,89.46
2023-01-26T01:04:21.761Z,89.39
2023-01-26T01:06:49.132Z,89.32
2023-01-26T01:09:19.314Z,88.90
2023-01-26T01:11:46.422Z,88.78
2023-01-26T01:14:15.087Z,88.91
2023-01-26T01:16:43.220Z,88.60
2023-01-26T01:19:14.500Z,88.55
2023-01-26T01:21:42.848Z,88.90
2023-01-26T01:24:12.158Z,88.69
2023-01-26T01:26:40.662Z,88.63
2023-01-26T01:29:12.965Z,88.63
2023-01-26T01:31:41.538Z,88.91
2023-01-26T01:34:09.817Z,88.34
2023-01-26T01:36:36.930Z,88.16
2023-01-26T01:39:04.008Z,88.19
2023-01-26T01:41:30.963Z,88.33
2023-01-26T01:44:18.941Z,88.42
2023-01-26T01:46:55.220Z,88.23
2023-01-26T01:49:41.142Z,88.11
2023-01-26T01:52:30.095Z,88.23
2023-01-26T01:55:02.259Z,88.42
2023-01-26T01:57:45.056Z,88.34
2023-01-26T02:00:17.525Z,88.41
2023-01-26T02:03:05.531Z,88.43
2023-01-26T02:05:34.671Z,88.31
2023-01-26T02:08:03.342Z,88.65
2023-01-26T02:10:30.472Z,88.77
2023-01-26T02:13:04.063Z,88.55
2023-01-26T02:15:31.407Z,88.75
2023-01-26T02:18:02.100Z,88.20
2023-01-26T02:20:43.771Z,88.54
2023-01-26T02:23:29.691Z,88.70
2023-01-26T02:25:57.422Z,88.71
2023-01-26T02:28:26.525Z,88.76
2023-01-26T02:30:54.637Z,88.70
2023-01-26T02:33:24.800Z,88.56
2023-01-26T02:35:55.326Z,88.91
2023-01-26T02:38:24.052Z,88.58
2023-01-26T02:40:55.109Z,88.46
2023-01-26T02:43:24.883Z,88.34
2023-01-26T02:45:53.206Z,88.38
2023-01-26T02:48:40.439Z,88.69
2023-01-26T02:51:07.508Z,88.60
2023-01-26T02:53:34.906Z,88.72
2023-01-26T02:56:02.085Z,88.69
2023-01-26T02:58:29.236Z,88.86
2023-01-26T03:00:56.310Z,88.69
2023-01-26T03:03:25.914Z,88.91
2023-01-26T03:05:52.887Z,88.96
2023-01-26T03:08:19.887Z,89.11
2023-01-26T03:10:47.706Z,89.05
2023-01-26T03:13:15.014Z,88.98
2023-01-26T03:15:52.782Z,88.90
2023-01-26T03:18:41.700Z,88.88
2023-01-26T03:21:32.932Z,88.49
2023-01-26T03:24:19.474Z,88.56
2023-01-26T03:27:06.341Z,88.56
2023-01-26T03:29:34.685Z,88.80
2023-01-26T03:32:02.522Z,88.67
2023-01-26T03:34:30.682Z,88.54
2023-01-26T03:36:58.172Z,88.47
2023-01-26T03:39:47.946Z,88.66
2023-01-26T03:42:33.856Z,88.50
2023-01-26T03:45:19.487Z,88.44
2023-01-26T03:48:07.986Z,88.54
2023-01-26T03:50:53.569Z,88.35
2023-01-26T03:53:42.388Z,88.33
2023-01-26T03:56:41.292Z,88.64
2023-01-26T03:59:15.537Z,88.77
2023-01-26T04:02:06.341Z,88.40
2023-01-26T04:04:53.687Z,88.23
2023-01-26T04:07:47.708Z,88.28
2023-01-26T04:10:15.064Z,88.20
2023-01-26T04:12:42.709Z,88.23
2023-01-26T04:15:36.268Z,88.39
2023-01-26T04:18:28.396Z,88.38
2023-01-26T04:21:14.727Z,88.50
2023-01-26T04:23:47.506Z,88.34
2023-01-26T04:26:15.072Z,87.99
2023-01-26T04:28:42.688Z,87.72
2023-01-26T04:31:09.941Z,87.99
2023-01-26T04:33:38.221Z,87.89
2023-01-26T04:36:06.393Z,87.76
2023-01-26T04:38:35.800Z,87.67
2023-01-26T04:41:03.111Z,87.35
2023-01-26T04:43:37.890Z,87.55
2023-01-26T04:46:07.547Z,87.57
2023-01-26T04:48:36.356Z,87.51
2023-01-26T04:51:06.220Z,87.34
2023-01-26T04:53:33.901Z,87.17
2023-01-26T04:56:01.221Z,87.21
2023-01-26T04:58:29.967Z,87.06
2023-01-26T05:00:58.431Z,87.19
2023-01-26T05:03:26.469Z,86.96
2023-01-26T05:05:55.151Z,87.09
2023-01-26T05:08:24.736Z,87.19
2023-01-26T05:10:52.503Z,87.10
2023-01-26T05:13:23.320Z,86.99
2023-01-26T05:16:04.204Z,86.79
2023-01-26T05:19:07.153Z,87.09
2023-01-26T05:21:57.082Z,86.56
2023-01-26T05:24:24.117Z,86.75
2023-01-26T05:27:18.943Z,86.69
2023-01-26T05:29:49.966Z,86.82
2023-01-26T05:32:17.135Z,86.42
2023-01-26T05:34:44.152Z,86.43
2023-01-26T05:37:13.732Z,87.03
2023-01-26T05:39:44.363Z,87.15
2023-01-26T05:42:13.220Z,86.89
2023-01-26T05:45:18.746Z,86.80
2023-01-26T05:47:48.687Z,86.84
2023-01-26T05:50:16.270Z,86.58
2023-01-26T05:52:46.601Z,86.45
2023-01-26T05:57:58.838Z,86.62
2023-01-26T06:00:26.568Z,86.82
2023-01-26T06:03:01.854Z,86.64
2023-01-26T06:05:28.979Z,86.42
2023-01-26T06:08:00.216Z,86.19
2023-01-26T06:10:42.990Z,86.54
2023-01-26T06:13:30.390Z,86.29
2023-01-26T06:16:17.461Z,86.46
2023-01-26T06:18:48.679Z,86.43
2023-01-26T06:21:16.518Z,86.51
2023-01-26T06:23:44.364Z,86.07
2023-01-26T06:26:12.184Z,86.11
2023-01-26T06:28:39.589Z,85.88
2023-01-26T06:31:08.644Z,85.88
2023-01-26T06:33:36.995Z,85.82
2023-01-26T06:36:10.120Z,86.10
2023-01-26T06:38:37.895Z,86.37
2023-01-26T06:41:07.313Z,85.56
2023-01-26T06:43:35.704Z,85.64
2023-01-26T06:46:05.144Z,85.85
2023-01-26T06:48:34.770Z,85.63
2023-01-26T06:51:15.729Z,85.57
2023-01-26T06:53:54.500Z,85.41
2023-01-26T06:56:47.804Z,85.47
2023-01-26T06:59:28.322Z,85.56
2023-01-26T07:02:19.256Z,85.66
2023-01-26T07:04:47.224Z,85.73
2023-01-26T07:07:14.717Z,85.57
2023-01-26T07:09:48.966Z,85.50
2023-01-26T07:12:16.936Z,85.37
2023-01-26T07:14:49.358Z,85.31
2023-01-26T07:17:22.176Z,85.26
2023-01-26T07:19:52.177Z,85.15
2023-01-26T07:22:20.664Z,84.91
2023-01-26T07:24:48.854Z,84.76
2023-01-26T07:27:18.344Z,84.80
2023-01-26T07:29:47.996Z,84.82
2023-01-26T07:32:17.114Z,84.97
2023-01-26T07:34:46.756Z,84.25
2023-01-26T07:37:19.163Z,84.28
2023-01-26T07:39:46.529Z,84.56
2023-01-26T07:42:15.481Z,84.00
2023-01-26T07:44:53.446Z,84.04
2023-01-26T07:47:23.663Z,84.04
2023-01-26T07:49:52.917Z,84.28
2023-01-26T07:52:27.048Z,83.97
2023-01-26T07:54:54.460Z,84.27
2023-01-26T07:57:26.187Z,84.49
2023-01-26T07:59:59.505Z,84.18
2023-01-26T08:02:30.741Z,84.06
2023-01-26T08:07:39.386Z,83.88
2023-01-26T08:10:16.241Z,83.90
2023-01-26T08:12:48.081Z,83.25
2023-01-26T08:15:43.484Z,83.22
2023-01-26T08:18:22.901Z,82.79
2023-01-26T08:21:00.744Z,83.12
2023-01-26T08:23:51.608Z,82.95
2023-01-26T08:26:21.491Z,83.07
2023-01-26T08:28:49.927Z,82.52
2023-01-26T08:31:29.188Z,82.83
2023-01-26T08:34:00.891Z,82.78
2023-01-26T08:36:30.072Z,82.53
2023-01-26T08:38:57.253Z,82.60
2023-01-26T08:41:24.198Z,82.38
2023-01-26T08:43:51.521Z,82.75
2023-01-26T08:46:18.687Z,82.55
2023-01-26T08:48:50.879Z,82.17
2023-01-26T08:51:18.048Z,81.83
2023-01-26T08:53:45.460Z,81.96
2023-01-26T08:56:13.369Z,82.40
2023-01-26T08:58:40.714Z,82.15
2023-01-26T09:01:12.425Z,81.78
2023-01-26T09:03:39.663Z,82.17
2023-01-26T09:06:08.153Z,81.88
2023-01-26T09:08:35.204Z,81.76
2023-01-26T09:11:02.288Z,81.32
2023-01-26T09:13:29.369Z,81.63
2023-01-26T09:15:56.265Z,81.87
2023-01-26T09:18:23.311Z,81.76
2023-01-26T09:20:51.391Z,81.87
2023-01-26T09:23:18.349Z,81.81
2023-01-26T09:25:45.394Z,81.79
2023-01-26T09:28:12.647Z,82.31
2023-01-26T09:30:41.049Z,82.08
2023-01-26T09:33:08.633Z,82.55
2023-01-26T09:35:35.643Z,82.07
2023-01-26T09:38:02.658Z,82.24
2023-01-26T09:40:51.255Z,82.43
2023-01-26T09:43:29.763Z,82.48
2023-01-26T09:46:26.681Z,82.54
2023-01-26T09:49:01.537Z,82.66
2023-01-26T09:51:42.536Z,82.84
2023-01-26T09:54:18.265Z,82.56
2023-01-26T09:56:45.489Z,82.67
2023-01-26T09:59:23.467Z,82.70
2023-01-26T10:02:00.762Z,82.68
2023-01-26T10:04:36.633Z,82.47
2023-01-26T10:07:09.372Z,82.41
2023-01-26T10:09:50.992Z,82.41
2023-01-26T10:12:22.145Z,82.40
2023-01-26T10:15:04.065Z,82.42
2023-01-26T10:17:43.500Z,82.34
2023-01-26T10:20:14.857Z,81.99
2023-01-26T10:22:52.017Z,82.40
2023-01-26T10:25:41.271Z,82.53
2023-01-26T10:28:31.124Z,82.45
2023-01-26T10:30:58.303Z,82.31
2023-01-26T10:33:34.833Z,82.35
2023-01-26T10:36:04.164Z,82.21
2023-01-26T10:38:34.172Z,82.21
2023-01-26T10:41:02.322Z,82.03
2023-01-26T10:43:29.547Z,82.41
2023-01-26T10:45:59.603Z,82.48
2023-01-26T10:48:27.382Z,82.59
2023-01-26T10:50:54.901Z,82.75
2023-01-26T10:53:29.744Z,82.34
2023-01-26T10:56:17.236Z,82.50
2023-01-26T10:58:50.504Z,82.44
2023-01-26T11:01:19.009Z,82.39
2023-01-26T11:04:04.860Z,82.17
2023-01-26T11:06:32.285Z,82.57
2023-01-26T11:09:16.969Z,82.66
2023-01-26T11:11:55.755Z,83.09
2023-01-26T11:14:22.848Z,83.15
2023-01-26T11:17:09.182Z,83.24
2023-01-26T11:19:56.693Z,82.91
2023-01-26T11:22:46.042Z,82.86
2023-01-26T11:25:28.960Z,83.13
2023-01-26T11:28:10.085Z,83.14
2023-01-26T11:31:01.906Z,83.22
2023-01-26T11:33:47.040Z,82.52
2023-01-26T11:36:20.729Z,83.18
2023-01-26T11:39:17.979Z,83.50
2023-01-26T11:42:11.122Z,83.59
2023-01-26T11:44:56.885Z,83.45
2023-01-26T11:47:32.841Z,83.17
2023-01-26T11:50:20.166Z,83.32
2023-01-26T11:52:53.206Z,83.79
2023-01-26T11:55:46.220Z,83.77
2023-01-26T11:58:32.117Z,83.96
2023-01-26T12:01:04.014Z,83.87
2023-01-26T12:03:50.767Z,84.07
2023-01-26T12:06:24.124Z,83.77
2023-01-26T12:09:03.776Z,83.76
2023-01-26T12:11:43.297Z,83.87
2023-01-26T12:14:18.744Z,84.05
2023-01-26T12:17:18.396Z,83.89
2023-01-26T12:19:48.544Z,84.04
2023-01-26T12:22:37.945Z,84.23
2023-01-26T12:25:19.683Z,84.37
2023-01-26T12:28:12.900Z,84.07
2023-01-26T12:31:02.437Z,83.96
2023-01-26T12:33:30.295Z,84.05
2023-01-26T12:36:17.978Z,84.52
2023-01-26T12:39:13.929Z,84.96
2023-01-26T12:42:15.193Z,84.88
2023-01-26T12:44:44.699Z,84.79
2023-01-26T12:47:24.734Z,84.96
2023-01-26T12:49:51.669Z,84.82
2023-01-26T12:52:26.756Z,84.71
2023-01-26T12:55:03.024Z,85.05
2023-01-26T12:57:38.629Z,85.19
2023-01-26T13:00:13.454Z,85.26
2023-01-26T13:02:46.060Z,85.18
2023-01-26T13:05:31.735Z,85.40
2023-01-26T13:07:59.042Z,85.52
2023-01-26T13:10:31.042Z,85.71
2023-01-26T13:13:18.672Z,85.53
2023-01-26T13:15:45.653Z,85.89
2023-01-26T13:18:17.283Z,86.06
2023-01-26T13:20:49.586Z,86.16
2023-01-26T13:23:43.615Z,86.15
2023-01-26T13:26:32.672Z,86.26
2023-01-26T13:29:24.535Z,86.70
2023-01-26T13:31:52.461Z,87.02
2023-01-26T13:34:35.128Z,87.00
2023-01-26T13:37:24.242Z,87.32
2023-01-26T13:40:05.222Z,87.19
2023-01-26T13:42:41.940Z,87.61
2023-01-26T13:45:18.474Z,87.81
2023-01-26T13:47:49.861Z,87.68
2023-01-26T13:50:37.855Z,87.74
2023-01-26T13:53:33.291Z,87.87
2023-01-26T13:56:01.372Z,87.89
2023-01-26T13:58:28.440Z,87.99
2023-01-26T14:01:06.376Z,87.89
2023-01-26T14:03:33.813Z,88.11
2023-01-26T14:06:04.603Z,87.96
2023-01-26T14:08:33.668Z,88.04
2023-01-26T14:11:03.229Z,88.07
2023-01-26T14:13:31.542Z,88.35
2023-01-26T14:16:06.011Z,88.29
2023-01-26T14:18:33.194Z,88.31
2023-01-26T14:21:06.226Z,88.28
2023-01-26T14:23:37.288Z,88.26
2023-01-26T14:26:07.139Z,88.37
2023-01-26T14:28:42.000Z,88.94
2023-01-26T14:31:26.080Z,88.61
2023-01-26T14:33:57.504Z,88.72
2023-01-26T14:36:27.168Z,88.82
2023-01-26T14:38:55.847Z,89.01
2023-01-26T14:41:31.028Z,88.84
2023-01-26T14:44:02.018Z,88.89
2023-01-26T14:46:57.085Z,88.80
2023-01-26T14:49:30.503Z,88.97
2023-01-26T14:51:58.258Z,89.26
2023-01-26T14:54:27.740Z,89.06
2023-01-26T14:56:54.742Z,89.10
2023-01-26T14:59:24.932Z,89.07
2023-01-26T15:02:14.525Z,89.13
2023-01-26T15:04:48.742Z,89.43
2023-01-26T15:07:39.124Z,89.40
2023-01-26T15:10:31.627Z,89.60
2023-01-26T15:13:10.343Z,89.57
2023-01-26T15:15:39.486Z,89.73
2023-01-26T15:18:18.286Z,90.01
2023-01-26T15:20:53.952Z,89.71
2023-01-26T15:23:30.751Z,89.73
2023-01-26T15:26:09.191Z,89.99
2023-01-26T15:28:37.567Z,89.97
2023-01-26T15:31:05.069Z,90.32
2023-01-26T15:33:50.551Z,89.91
2023-01-26T15:36:23.235Z,89.94
2023-01-26T15:38:51.626Z,90.24
2023-01-26T15:41:18.761Z,90.62
2023-01-26T15:43:45.737Z,90.86
2023-01-26T15:46:12.864Z,90.62
2023-01-26T15:48:39.959Z,91.12
2023-01-26T15:51:13.198Z,91.23
2023-01-26T15:53:40.685Z,91.08
2023-01-26T15:56:12.036Z,91.46
2023-01-26T15:58:39.143Z,91.44
2023-01-26T16:01:08.124Z,91.67
2023-01-26T16:03:35.101Z,91.55
2023-01-26T16:06:02.196Z,91.57
2023-01-26T16:08:29.229Z,91.59
2023-01-26T16:10:56.992Z,91.79
2023-01-26T16:13:23.964Z,91.59
2023-01-26T16:15:52.531Z,91.78
2023-01-26T16:18:21.320Z,91.84
2023-01-26T16:20:49.604Z,92.05
2023-01-26T16:23:28.825Z,92.18
2023-01-26T16:25:56.200Z,92.29
2023-01-26T16:28:23.361Z,92.55
2023-01-26T16:30:51.486Z,92.32
2023-01-26T16:33:21.312Z,92.86
2023-01-26T16:35:48.399Z,93.01
2023-01-26T16:38:16.001Z,93.22
2023-01-26T16:40:45.474Z,93.65
2023-01-26T16:43:23.562Z,93.90
2023-01-26T16:45:51.090Z,93.79
2023-01-26T16:48:18.200Z,93.80
2023-01-26T16:50:45.987Z,94.12
2023-01-26T16:53:45.389Z,94.18
2023-01-26T16:56:14.265Z,94.05
2023-01-26T16:58:41.522Z,94.08
2023-01-26T17:01:18.183Z,94.49
2023-01-26T17:03:45.512Z,94.65
2023-01-26T17:06:12.687Z,94.91
2023-01-26T17:08:40.363Z,94.90
2023-01-26T17:11:18.975Z,95.17
2023-01-26T17:13:46.940Z,94.94
2023-01-26T17:16:29.731Z,95.10
2023-01-26T17:18:57.037Z,95.08
2023-01-26T17:21:26.596Z,94.83
2023-01-26T17:23:55.318Z,95.14
2023-01-26T17:26:23.057Z,95.19
2023-01-26T17:28:54.343Z,95.11
2023-01-26T17:31:22.725Z,95.36
2023-01-26T17:33:54.973Z,95.27
2023-01-26T17:36:22.304Z,95.31
2023-01-26T17:38:49.450Z,95.45
2023-01-26T17:41:17.444Z,95.41
2023-01-26T17:43:44.831Z,95.81
2023-01-26T17:46:14.854Z,95.80
2023-01-26T17:48:46.313Z,95.45
2023-01-26T17:51:21.421Z,95.50
2023-01-26T17:53:49.856Z,95.36
2023-01-26T17:56:18.621Z,95.32
2023-01-26T17:58:54.435Z,95.33
2023-01-26T18:01:22.819Z,95.30
2023-01-26T18:03:50.006Z,95.37
2023-01-26T18:06:17.621Z,95.58
2023-01-26T18:08:44.554Z,95.46
2023-01-26T18:11:14.144Z,95.20
2023-01-26T18:13:42.611Z,95.01
2023-01-26T18:16:12.871Z,94.95
2023-01-26T18:18:39.970Z,94.94
2023-01-26T18:21:11.403Z,94.60
2023-01-26T18:23:38.348Z,94.47
2023-01-26T18:26:06.517Z,94.23
2023-01-26T18:28:33.709Z,93.89
2023-01-26T18:31:08.864Z,94.21
2023-01-26T18:33:36.511Z,94.00
2023-01-26T18:36:09.683Z,93.97
2023-01-26T18:38:49.551Z,93.54
2023-01-26T18:41:18.530Z,93.77
2023-01-26T18:43:48.460Z,93.89
2023-01-26T18:46:15.685Z,93.72
2023-01-26T18:48:42.857Z,93.53
2023-01-26T18:51:10.436Z,93.63
2023-01-26T18:53:40.667Z,93.58
2023-01-26T18:56:09.936Z,93.44
2023-01-26T18:58:37.997Z,93.56
2023-01-26T19:01:10.233Z,93.24
2023-01-26T19:03:40.757Z,93.26
2023-01-26T19:06:08.969Z,93.26
2023-01-26T19:08:35.896Z,93.28
2023-01-26T19:11:07.690Z,93.34
2023-01-26T19:13:34.935Z,93.42
2023-01-26T19:16:02.338Z,93.25
2023-01-26T19:18:29.571Z,93.08
2023-01-26T19:20:58.151Z,93.03
2023-01-26T19:23:25.396Z,93.11
2023-01-26T19:25:52.581Z,93.06
2023-01-26T19:28:19.636Z,93.13
2023-01-26T19:30:46.854Z,93.04
2023-01-26T19:33:28.091Z,92.98
2023-01-26T19:35:56.506Z,92.85
2023-01-26T19:38:23.928Z,93.17
2023-01-26T19:40:51.890Z,93.04
2023-01-26T19:43:19.501Z,92.82
2023-01-26T19:45:54.378Z,92.59
2023-01-26T19:48:48.987Z,92.66
2023-01-26T19:51:53.608Z,92.43
2023-01-26T19:54:23.232Z,92.60
2023-01-26T19:57:02.808Z,92.55
2023-01-26T19:59:30.196Z,92.65
2023-01-26T20:01:57.182Z,92.62
2023-01-26T20:04:32.362Z,92.52
2023-01-26T20:07:07.841Z,92.68
2023-01-26T20:09:51.016Z,92.61
2023-01-26T20:12:22.796Z,92.70
2023-01-26T20:15:12.961Z,92.69
2023-01-26T20:17:45.528Z,92.83
2023-01-26T20:20:16.091Z,92.37
2023-01-26T20:22:46.019Z,92.42
2023-01-26T20:25:13.499Z,92.49
2023-01-26T20:27:41.225Z,92.37
2023-01-26T20:30:09.803Z,92.34
2023-01-26T20:32:36.937Z,92.08
2023-01-26T20:35:06.058Z,92.15
2023-01-26T20:37:32.994Z,92.21
2023-01-26T20:39:59.993Z,91.90
2023-01-26T20:42:28.157Z,92.28
2023-01-26T20:44:57.493Z,92.25
2023-01-26T20:47:25.169Z,92.45
2023-01-26T20:49:54.026Z,92.17
2023-01-26T20:52:21.858Z,92.30
2023-01-26T20:54:48.752Z,92.39
2023-01-26T20:57:16.107Z,92.60
2023-01-26T20:59:43.026Z,92.44
2023-01-26T21:02:14.640Z,92.25
2023-01-26T21:04:42.588Z,92.25
2023-01-26T21:07:09.908Z,92.24
2023-01-26T21:09:36.885Z,92.43
2023-01-26T21:12:04.090Z,92.36
2023-01-26T21:14:31.121Z,92.12
2023-01-26T21:16:58.195Z,91.90
2023-01-26T21:19:25.416Z,92.43
2023-01-26T21:21:52.428Z,92.29
2023-01-26T21:24:19.430Z,92.36
2023-01-26T21:26:48.018Z,92.19
2023-01-26T21:29:16.466Z,92.26
2023-01-26T21:31:45.622Z,92.28
2023-01-26T21:34:13.013Z,92.40
2023-01-26T21:36:39.878Z,92.74
2023-01-26T21:39:10.890Z,92.78
2023-01-26T21:41:55.792Z,92.40
2023-01-26T21:44:27.803Z,92.36
2023-01-26T21:46:56.982Z,92.42
2023-01-26T21:49:24.770Z,92.29
2023-01-26T21:52:10.907Z,92.44
2023-01-26T21:54:37.948Z,92.30
2023-01-26T21:57:26.261Z,92.50
2023-01-26T21:59:53.369Z,92.25
2023-01-26T22:02:21.612Z,92.32
2023-01-26T22:04:48.620Z,92.42
2023-01-26T22:07:15.653Z,92.34
2023-01-26T22:09:42.740Z,92.50
2023-01-26T22:12:09.825Z,92.67
2023-01-26T22:14:36.888Z,92.50
2023-01-26T22:17:03.954Z,92.24
2023-01-26T22:19:30.869Z,92.40
2023-01-26T22:21:58.147Z,92.47
2023-01-26T22:24:25.111Z,92.58
2023-01-26T22:26:52.348Z,92.60
2023-01-26T22:29:19.391Z,92.85
2023-01-26T22:31:46.340Z,92.63
2023-01-26T22:34:13.340Z,92.51
2023-01-26T22:36:41.139Z,92.75
2023-01-26T22:39:12.433Z,92.66
2023-01-26T22:41:40.339Z,92.77
2023-01-26T22:44:07.344Z,92.46
2023-01-26T22:46:34.673Z,92.54
2023-01-26T22:49:01.754Z,92.60
2023-01-26T22:51:31.379Z,92.80
2023-01-26T22:53:59.569Z,92.49
2023-01-26T22:56:27.548Z,92.82
2023-01-26T22:58:59.644Z,92.72
2023-01-26T23:01:32.119Z,92.74
2023-01-26T23:04:00.310Z,93.09
2023-01-26T23:06:27.536Z,93.28
2023-01-26T23:08:55.258Z,93.30
2023-01-26T23:11:27.297Z,93.44
2023-01-26T23:13:55.291Z,93.38
2023-01-26T23:16:25.617Z,93.37
2023-01-26T23:18:54.036Z,93.81
2023-01-26T23:21:21.347Z,93.90
2023-01-26T23:23:48.598Z,93.87
2023-01-26T23:26:15.645Z,93.76
2023-01-26T23:28:43.871Z,93.95
2023-01-26T23:31:12.455Z,94.13
2023-01-26T23:33:40.044Z,93.88
2023-01-26T23:36:07.860Z,93.92
2023-01-26T23:38:35.299Z,94.05
2023-01-26T23:41:02.273Z,93.84
2023-01-26T23:43:29.260Z,93.72
2023-01-26T23:45:56.937Z,93.79
2023-01-26T23:48:24.979Z,94.04
2023-01-26T23:51:00.257Z,93.99
2023-01-26T23:53:28.267Z,94.10
2023-01-26T23:55:55.344Z,94.27
2023-01-26T23:58:22.344Z,94.17
